sensor_id;sensor_type;location;lat;lon;timestamp;temperature;humidity
65408;DHT22;52017;51.230;-2.322;2022-11-12T00:00:18;13.50;80.90
65408;DHT22;52017;51.230;-2.322;2022-11-12T00:04:00;13.50;80.90
65408;DHT22;52017;51.230;-2.322;2022-11-12T00:07:42;13.50;81.00
65408;DHT22;52017;51.230;-2.322;2022-11-12T00:11:24;13.40;80.90
65408;DHT22;52017;51.230;-2.322;2022-11-12T00:15:07;13.30;80.90
65408;DHT22;52017;51.230;-2.322;2022-11-12T00:18:49;13.30;81.10
65408;DHT22;52017;51.230;-2.322;2022-11-12T00:22:32;13.20;81.20
65408;DHT22;52017;51.230;-2.322;2022-11-12T00:26:14;13.20;81.10
65408;DHT22;52017;51.230;-2.322;2022-11-12T00:29:56;13.20;81.10
65408;DHT22;52017;51.230;-2.322;2022-11-12T00:33:39;13.10;81.00
65408;DHT22;52017;51.230;-2.322;2022-11-12T00:37:22;13.10;81.10
65408;DHT22;52017;51.230;-2.322;2022-11-12T00:41:05;13.00;81.20
65408;DHT22;52017;51.230;-2.322;2022-11-12T00:44:47;13.00;81.20
65408;DHT22;52017;51.230;-2.322;2022-11-12T00:48:30;13.00;81.20
65408;DHT22;52017;51.230;-2.322;2022-11-12T00:52:13;12.80;81.20
65408;DHT22;52017;51.230;-2.322;2022-11-12T00:56:02;12.70;81.30
65408;DHT22;52017;51.230;-2.322;2022-11-12T00:59:45;12.60;81.60
65408;DHT22;52017;51.230;-2.322;2022-11-12T01:03:27;12.50;81.70
65408;DHT22;52017;51.230;-2.322;2022-11-12T01:07:09;12.50;81.90
65408;DHT22;52017;51.230;-2.322;2022-11-12T01:10:51;12.50;81.90
65408;DHT22;52017;51.230;-2.322;2022-11-12T01:14:34;12.50;82.00
65408;DHT22;52017;51.230;-2.322;2022-11-12T01:18:16;12.60;82.00
65408;DHT22;52017;51.230;-2.322;2022-11-12T01:21:58;12.70;82.00
65408;DHT22;52017;51.230;-2.322;2022-11-12T01:25:40;12.70;82.00
65408;DHT22;52017;51.230;-2.322;2022-11-12T01:29:22;12.80;82.10
65408;DHT22;52017;51.230;-2.322;2022-11-12T01:33:04;12.80;82.10
65408;DHT22;52017;51.230;-2.322;2022-11-12T01:36:47;12.90;82.00
65408;DHT22;52017;51.230;-2.322;2022-11-12T01:40:29;12.90;82.00
65408;DHT22;52017;51.230;-2.322;2022-11-12T01:44:20;13.00;81.90
65408;DHT22;52017;51.230;-2.322;2022-11-12T01:48:03;12.90;81.80
65408;DHT22;52017;51.230;-2.322;2022-11-12T01:51:48;13.00;81.90
65408;DHT22;52017;51.230;-2.322;2022-11-12T01:55:33;13.00;81.80
65408;DHT22;52017;51.230;-2.322;2022-11-12T01:59:21;13.00;81.80
65408;DHT22;52017;51.230;-2.322;2022-11-12T02:03:09;13.00;81.80
65408;DHT22;52017;51.230;-2.322;2022-11-12T02:06:55;13.00;81.70
65408;DHT22;52017;51.230;-2.322;2022-11-12T02:10:38;13.00;81.70
65408;DHT22;52017;51.230;-2.322;2022-11-12T02:14:22;13.00;81.70
65408;DHT22;52017;51.230;-2.322;2022-11-12T02:18:04;13.00;81.60
65408;DHT22;52017;51.230;-2.322;2022-11-12T02:21:46;13.00;81.60
65408;DHT22;52017;51.230;-2.322;2022-11-12T02:25:28;13.00;81.60
65408;DHT22;52017;51.230;-2.322;2022-11-12T02:29:11;13.00;81.60
65408;DHT22;52017;51.230;-2.322;2022-11-12T02:32:53;13.00;81.60
65408;DHT22;52017;51.230;-2.322;2022-11-12T02:36:35;12.90;81.60
65408;DHT22;52017;51.230;-2.322;2022-11-12T02:40:17;12.80;81.70
65408;DHT22;52017;51.230;-2.322;2022-11-12T02:43:59;12.90;81.70
65408;DHT22;52017;51.230;-2.322;2022-11-12T02:47:41;12.80;81.70
65408;DHT22;52017;51.230;-2.322;2022-11-12T02:51:23;12.80;81.60
65408;DHT22;52017;51.230;-2.322;2022-11-12T02:55:10;12.70;81.60
65408;DHT22;52017;51.230;-2.322;2022-11-12T02:58:52;12.50;81.70
65408;DHT22;52017;51.230;-2.322;2022-11-12T03:02:34;12.50;81.70
65408;DHT22;52017;51.230;-2.322;2022-11-12T03:06:23;12.30;81.80
65408;DHT22;52017;51.230;-2.322;2022-11-12T03:10:06;12.20;81.90
65408;DHT22;52017;51.230;-2.322;2022-11-12T03:13:48;12.10;82.00
65408;DHT22;52017;51.230;-2.322;2022-11-12T03:17:30;12.00;82.10
65408;DHT22;52017;51.230;-2.322;2022-11-12T03:21:12;11.90;82.20
65408;DHT22;52017;51.230;-2.322;2022-11-12T03:24:53;11.80;82.30
65408;DHT22;52017;51.230;-2.322;2022-11-12T03:28:35;11.70;82.50
65408;DHT22;52017;51.230;-2.322;2022-11-12T03:32:17;11.60;82.70
65408;DHT22;52017;51.230;-2.322;2022-11-12T03:35:59;11.60;82.70
65408;DHT22;52017;51.230;-2.322;2022-11-12T03:39:42;11.60;82.80
65408;DHT22;52017;51.230;-2.322;2022-11-12T03:43:24;11.60;82.80
65408;DHT22;52017;51.230;-2.322;2022-11-12T03:47:06;11.60;82.90
65408;DHT22;52017;51.230;-2.322;2022-11-12T03:50:48;11.60;83.00
65408;DHT22;52017;51.230;-2.322;2022-11-12T03:54:30;11.70;83.10
65408;DHT22;52017;51.230;-2.322;2022-11-12T03:58:11;11.80;83.20
65408;DHT22;52017;51.230;-2.322;2022-11-12T04:01:53;11.90;83.20
65408;DHT22;52017;51.230;-2.322;2022-11-12T04:05:35;11.90;83.20
65408;DHT22;52017;51.230;-2.322;2022-11-12T04:09:36;12.00;83.20
65408;DHT22;52017;51.230;-2.322;2022-11-12T04:13:18;12.00;83.10
65408;DHT22;52017;51.230;-2.322;2022-11-12T04:17:09;12.10;83.10
65408;DHT22;52017;51.230;-2.322;2022-11-12T04:21:12;12.10;83.10
65408;DHT22;52017;51.230;-2.322;2022-11-12T04:25:14;12.10;83.00
65408;DHT22;52017;51.230;-2.322;2022-11-12T04:29:14;12.10;83.00
65408;DHT22;52017;51.230;-2.322;2022-11-12T04:33:18;12.20;83.00
65408;DHT22;52017;51.230;-2.322;2022-11-12T04:37:03;12.20;82.90
65408;DHT22;52017;51.230;-2.322;2022-11-12T04:40:47;12.20;83.00
65408;DHT22;52017;51.230;-2.322;2022-11-12T04:44:47;12.30;83.00
65408;DHT22;52017;51.230;-2.322;2022-11-12T04:48:45;12.30;83.00
65408;DHT22;52017;51.230;-2.322;2022-11-12T04:52:28;12.30;83.00
65408;DHT22;52017;51.230;-2.322;2022-11-12T04:56:10;12.30;82.90
65408;DHT22;52017;51.230;-2.322;2022-11-12T04:59:52;12.40;82.90
65408;DHT22;52017;51.230;-2.322;2022-11-12T05:03:34;12.40;82.90
65408;DHT22;52017;51.230;-2.322;2022-11-12T05:07:16;12.40;82.90
65408;DHT22;52017;51.230;-2.322;2022-11-12T05:10:58;12.40;83.00
65408;DHT22;52017;51.230;-2.322;2022-11-12T05:14:41;12.50;83.00
65408;DHT22;52017;51.230;-2.322;2022-11-12T05:18:22;12.40;83.00
65408;DHT22;52017;51.230;-2.322;2022-11-12T05:22:05;12.50;83.00
65408;DHT22;52017;51.230;-2.322;2022-11-12T05:25:47;12.50;83.00
65408;DHT22;52017;51.230;-2.322;2022-11-12T05:29:29;12.50;83.00
65408;DHT22;52017;51.230;-2.322;2022-11-12T05:33:11;12.50;83.00
65408;DHT22;52017;51.230;-2.322;2022-11-12T05:36:53;12.50;83.00
65408;DHT22;52017;51.230;-2.322;2022-11-12T05:40:35;12.50;82.90
65408;DHT22;52017;51.230;-2.322;2022-11-12T05:44:17;12.50;82.90
65408;DHT22;52017;51.230;-2.322;2022-11-12T05:47:59;12.50;82.90
65408;DHT22;52017;51.230;-2.322;2022-11-12T05:51:41;12.50;82.90
65408;DHT22;52017;51.230;-2.322;2022-11-12T05:55:23;12.50;82.80
65408;DHT22;52017;51.230;-2.322;2022-11-12T05:59:07;12.60;82.90
65408;DHT22;52017;51.230;-2.322;2022-11-12T06:02:50;12.60;83.00
65408;DHT22;52017;51.230;-2.322;2022-11-12T06:06:32;12.60;82.90
65408;DHT22;52017;51.230;-2.322;2022-11-12T06:10:13;12.60;83.00
65408;DHT22;52017;51.230;-2.322;2022-11-12T06:14:01;12.70;83.00
65408;DHT22;52017;51.230;-2.322;2022-11-12T06:17:43;12.70;83.00
65408;DHT22;52017;51.230;-2.322;2022-11-12T06:21:25;12.70;83.00
65408;DHT22;52017;51.230;-2.322;2022-11-12T06:25:09;12.80;83.00
65408;DHT22;52017;51.230;-2.322;2022-11-12T06:28:51;12.70;83.00
65408;DHT22;52017;51.230;-2.322;2022-11-12T06:32:34;12.80;83.00
65408;DHT22;52017;51.230;-2.322;2022-11-12T06:36:18;12.80;83.00
65408;DHT22;52017;51.230;-2.322;2022-11-12T06:40:00;12.80;83.00
65408;DHT22;52017;51.230;-2.322;2022-11-12T06:43:42;12.80;83.10
65408;DHT22;52017;51.230;-2.322;2022-11-12T06:47:24;12.80;83.10
65408;DHT22;52017;51.230;-2.322;2022-11-12T06:51:16;12.80;83.10
65408;DHT22;52017;51.230;-2.322;2022-11-12T06:54:59;12.90;83.40
65408;DHT22;52017;51.230;-2.322;2022-11-12T06:58:41;12.90;83.20
65408;DHT22;52017;51.230;-2.322;2022-11-12T07:02:23;12.90;83.20
65408;DHT22;52017;51.230;-2.322;2022-11-12T07:06:11;12.90;83.20
65408;DHT22;52017;51.230;-2.322;2022-11-12T07:09:53;12.90;83.30
65408;DHT22;52017;51.230;-2.322;2022-11-12T07:13:35;13.00;83.30
65408;DHT22;52017;51.230;-2.322;2022-11-12T07:17:18;13.00;83.30
65408;DHT22;52017;51.230;-2.322;2022-11-12T07:21:01;13.00;83.40
65408;DHT22;52017;51.230;-2.322;2022-11-12T07:24:43;13.00;83.40
65408;DHT22;52017;51.230;-2.322;2022-11-12T07:28:26;13.00;83.40
65408;DHT22;52017;51.230;-2.322;2022-11-12T07:32:08;13.00;83.40
65408;DHT22;52017;51.230;-2.322;2022-11-12T07:36:06;13.00;83.40
65408;DHT22;52017;51.230;-2.322;2022-11-12T07:39:48;13.00;83.80
65408;DHT22;52017;51.230;-2.322;2022-11-12T07:43:32;13.00;83.50
65408;DHT22;52017;51.230;-2.322;2022-11-12T07:47:14;13.00;83.50
65408;DHT22;52017;51.230;-2.322;2022-11-12T07:51:02;13.10;83.60
65408;DHT22;52017;51.230;-2.322;2022-11-12T07:54:44;13.10;83.60
65408;DHT22;52017;51.230;-2.322;2022-11-12T07:58:27;13.10;83.60
65408;DHT22;52017;51.230;-2.322;2022-11-12T08:02:11;13.20;83.70
65408;DHT22;52017;51.230;-2.322;2022-11-12T08:05:54;13.20;83.70
65408;DHT22;52017;51.230;-2.322;2022-11-12T08:09:36;13.30;83.60
65408;DHT22;52017;51.230;-2.322;2022-11-12T08:13:18;13.30;83.70
65408;DHT22;52017;51.230;-2.322;2022-11-12T08:17:01;13.30;83.70
65408;DHT22;52017;51.230;-2.322;2022-11-12T08:20:43;13.30;83.70
65408;DHT22;52017;51.230;-2.322;2022-11-12T08:24:25;13.40;83.70
65408;DHT22;52017;51.230;-2.322;2022-11-12T08:28:08;13.40;83.70
65408;DHT22;52017;51.230;-2.322;2022-11-12T08:31:51;13.40;83.70
65408;DHT22;52017;51.230;-2.322;2022-11-12T08:35:37;13.50;83.80
65408;DHT22;52017;51.230;-2.322;2022-11-12T08:39:20;13.50;83.80
65408;DHT22;52017;51.230;-2.322;2022-11-12T08:43:04;13.50;83.80
65408;DHT22;52017;51.230;-2.322;2022-11-12T08:46:46;13.50;83.90
65408;DHT22;52017;51.230;-2.322;2022-11-12T08:50:29;13.50;83.90
65408;DHT22;52017;51.230;-2.322;2022-11-12T08:54:11;13.50;83.90
65408;DHT22;52017;51.230;-2.322;2022-11-12T08:58:17;13.60;83.90
65408;DHT22;52017;51.230;-2.322;2022-11-12T09:02:02;13.70;84.20
65408;DHT22;52017;51.230;-2.322;2022-11-12T09:05:45;13.70;83.90
65408;DHT22;52017;51.230;-2.322;2022-11-12T09:09:29;13.70;83.90
65408;DHT22;52017;51.230;-2.322;2022-11-12T09:13:14;13.80;83.80
65408;DHT22;52017;51.230;-2.322;2022-11-12T09:17:00;13.80;83.80
65408;DHT22;52017;51.230;-2.322;2022-11-12T09:20:44;13.80;83.80
65408;DHT22;52017;51.230;-2.322;2022-11-12T09:24:27;13.90;83.90
65408;DHT22;52017;51.230;-2.322;2022-11-12T09:28:17;14.00;84.00
65408;DHT22;52017;51.230;-2.322;2022-11-12T09:32:18;14.10;84.10
65408;DHT22;52017;51.230;-2.322;2022-11-12T09:36:06;14.20;83.90
65408;DHT22;52017;51.230;-2.322;2022-11-12T09:40:17;14.40;83.80
65408;DHT22;52017;51.230;-2.322;2022-11-12T09:44:13;14.50;83.70
65408;DHT22;52017;51.230;-2.322;2022-11-12T09:48:07;14.60;83.40
65408;DHT22;52017;51.230;-2.322;2022-11-12T09:52:03;14.70;83.40
65408;DHT22;52017;51.230;-2.322;2022-11-12T09:55:50;14.70;83.50
65408;DHT22;52017;51.230;-2.322;2022-11-12T09:59:34;15.00;83.90
65408;DHT22;52017;51.230;-2.322;2022-11-12T10:03:35;15.70;83.40
65408;DHT22;52017;51.230;-2.322;2022-11-12T10:20:12;17.10;78.90
65408;DHT22;52017;51.230;-2.322;2022-11-12T10:24:06;16.80;79.60
65408;DHT22;52017;51.230;-2.322;2022-11-12T10:27:50;16.50;80.10
65408;DHT22;52017;51.230;-2.322;2022-11-12T10:31:40;16.40;80.80
65408;DHT22;52017;51.230;-2.322;2022-11-12T10:35:27;16.40;81.30
65408;DHT22;52017;51.230;-2.322;2022-11-12T10:39:14;17.10;81.10
65408;DHT22;52017;51.230;-2.322;2022-11-12T10:47:18;19.00;77.00
65408;DHT22;52017;51.230;-2.322;2022-11-12T10:51:39;19.70;74.20
65408;DHT22;52017;51.230;-2.322;2022-11-12T10:55:53;20.10;72.30
65408;DHT22;52017;51.230;-2.322;2022-11-12T10:59:41;20.00;72.00
65408;DHT22;52017;51.230;-2.322;2022-11-12T11:07:25;20.00;73.40
65408;DHT22;52017;51.230;-2.322;2022-11-12T11:11:28;20.10;71.70
65408;DHT22;52017;51.230;-2.322;2022-11-12T11:15:24;19.90;72.70
65408;DHT22;52017;51.230;-2.322;2022-11-12T11:19:46;19.40;73.00
65408;DHT22;52017;51.230;-2.322;2022-11-12T11:24:47;18.90;73.70
65408;DHT22;52017;51.230;-2.322;2022-11-12T11:46:40;22.50;66.00
65408;DHT22;52017;51.230;-2.322;2022-11-12T11:51:28;23.00;64.20
65408;DHT22;52017;51.230;-2.322;2022-11-12T12:08:05;25.20;59.50
65408;DHT22;52017;51.230;-2.322;2022-11-12T12:24:29;25.80;56.40
65408;DHT22;52017;51.230;-2.322;2022-11-12T12:28:53;25.40;57.30
65408;DHT22;52017;51.230;-2.322;2022-11-12T12:33:35;25.30;57.00
65408;DHT22;52017;51.230;-2.322;2022-11-12T12:41:44;25.30;55.20
65408;DHT22;52017;51.230;-2.322;2022-11-12T12:46:23;25.30;55.90
65408;DHT22;52017;51.230;-2.322;2022-11-12T12:50:35;25.30;56.10
65408;DHT22;52017;51.230;-2.322;2022-11-12T12:54:56;25.30;56.60
65408;DHT22;52017;51.230;-2.322;2022-11-12T12:58:51;25.40;55.10
65408;DHT22;52017;51.230;-2.322;2022-11-12T13:02:45;25.50;54.80
65408;DHT22;52017;51.230;-2.322;2022-11-12T13:26:45;23.90;57.30
65408;DHT22;52017;51.230;-2.322;2022-11-12T13:34:31;23.10;59.20
65408;DHT22;52017;51.230;-2.322;2022-11-12T13:38:17;22.90;59.50
65408;DHT22;52017;51.230;-2.322;2022-11-12T13:42:20;22.70;60.40
65408;DHT22;52017;51.230;-2.322;2022-11-12T13:46:42;22.80;59.20
65408;DHT22;52017;51.230;-2.322;2022-11-12T13:50:31;23.00;58.80
65408;DHT22;52017;51.230;-2.322;2022-11-12T13:54:34;23.30;58.50
65408;DHT22;52017;51.230;-2.322;2022-11-12T14:03:50;23.40;57.00
65408;DHT22;52017;51.230;-2.322;2022-11-12T14:17:30;24.10;54.90
65408;DHT22;52017;51.230;-2.322;2022-11-12T14:21:34;24.20;54.50
65408;DHT22;52017;51.230;-2.322;2022-11-12T14:25:50;24.30;54.80
65408;DHT22;52017;51.230;-2.322;2022-11-12T14:29:34;24.00;54.50
65408;DHT22;52017;51.230;-2.322;2022-11-12T14:33:28;24.00;55.70
65408;DHT22;52017;51.230;-2.322;2022-11-12T14:37:34;23.60;55.60
65408;DHT22;52017;51.230;-2.322;2022-11-12T14:41:36;22.80;56.00
65408;DHT22;52017;51.230;-2.322;2022-11-12T14:45:21;21.80;59.20
65408;DHT22;52017;51.230;-2.322;2022-11-12T14:49:24;21.00;61.50
65408;DHT22;52017;51.230;-2.322;2022-11-12T14:57:10;20.00;64.00
65408;DHT22;52017;51.230;-2.322;2022-11-12T15:00:56;19.60;65.10
65408;DHT22;52017;51.230;-2.322;2022-11-12T15:04:49;19.40;65.70
65408;DHT22;52017;51.230;-2.322;2022-11-12T15:08:37;19.20;66.20
65408;DHT22;52017;51.230;-2.322;2022-11-12T15:12:23;19.00;67.00
65408;DHT22;52017;51.230;-2.322;2022-11-12T15:16:10;18.90;67.40
65408;DHT22;52017;51.230;-2.322;2022-11-12T15:20:02;18.70;67.70
65408;DHT22;52017;51.230;-2.322;2022-11-12T15:33:27;18.30;69.00
65408;DHT22;52017;51.230;-2.322;2022-11-12T15:41:20;18.10;69.80
65408;DHT22;52017;51.230;-2.322;2022-11-12T15:45:25;18.00;70.40
65408;DHT22;52017;51.230;-2.322;2022-11-12T15:49:18;17.80;70.20
65408;DHT22;52017;51.230;-2.322;2022-11-12T15:53:00;17.70;70.80
65408;DHT22;52017;51.230;-2.322;2022-11-12T15:56:56;17.60;70.70
65408;DHT22;52017;51.230;-2.322;2022-11-12T16:00:39;17.60;70.80
65408;DHT22;52017;51.230;-2.322;2022-11-12T16:04:21;17.50;71.00
65408;DHT22;52017;51.230;-2.322;2022-11-12T16:08:04;17.40;71.20
65408;DHT22;52017;51.230;-2.322;2022-11-12T16:11:50;17.30;71.50
65408;DHT22;52017;51.230;-2.322;2022-11-12T16:15:33;17.20;71.80
65408;DHT22;52017;51.230;-2.322;2022-11-12T16:19:17;17.10;71.90
65408;DHT22;52017;51.230;-2.322;2022-11-12T16:23:13;17.00;72.20
65408;DHT22;52017;51.230;-2.322;2022-11-12T16:27:03;16.90;72.60
65408;DHT22;52017;51.230;-2.322;2022-11-12T16:30:51;16.80;72.60
65408;DHT22;52017;51.230;-2.322;2022-11-12T16:34:40;16.70;73.00
65408;DHT22;52017;51.230;-2.322;2022-11-12T16:38:24;16.60;73.10
65408;DHT22;52017;51.230;-2.322;2022-11-12T16:42:09;16.60;73.30
65408;DHT22;52017;51.230;-2.322;2022-11-12T16:45:51;16.50;73.60
65408;DHT22;52017;51.230;-2.322;2022-11-12T16:49:53;16.40;73.60
65408;DHT22;52017;51.230;-2.322;2022-11-12T16:57:28;16.30;74.00
65408;DHT22;52017;51.230;-2.322;2022-11-12T17:01:27;16.20;74.50
65408;DHT22;52017;51.230;-2.322;2022-11-12T17:05:23;16.10;75.10
65408;DHT22;52017;51.230;-2.322;2022-11-12T17:09:07;16.10;75.00
65408;DHT22;52017;51.230;-2.322;2022-11-12T17:16:55;16.00;75.50
65408;DHT22;52017;51.230;-2.322;2022-11-12T17:25:24;15.90;76.40
65408;DHT22;52017;51.230;-2.322;2022-11-12T17:29:21;15.80;75.20
65408;DHT22;52017;51.230;-2.322;2022-11-12T17:33:06;15.80;75.30
65408;DHT22;52017;51.230;-2.322;2022-11-12T17:36:50;15.80;75.70
65408;DHT22;52017;51.230;-2.322;2022-11-12T17:40:32;15.70;75.70
65408;DHT22;52017;51.230;-2.322;2022-11-12T17:44:17;15.60;75.80
65408;DHT22;52017;51.230;-2.322;2022-11-12T17:47:59;15.50;76.00
65408;DHT22;52017;51.230;-2.322;2022-11-12T17:51:41;15.50;76.10
65408;DHT22;52017;51.230;-2.322;2022-11-12T17:55:23;15.40;76.30
65408;DHT22;52017;51.230;-2.322;2022-11-12T17:59:05;15.40;76.60
65408;DHT22;52017;51.230;-2.322;2022-11-12T18:02:49;15.30;76.80
65408;DHT22;52017;51.230;-2.322;2022-11-12T18:06:33;15.30;77.10
65408;DHT22;52017;51.230;-2.322;2022-11-12T18:10:19;15.30;77.10
65408;DHT22;52017;51.230;-2.322;2022-11-12T18:14:05;15.20;77.20
65408;DHT22;52017;51.230;-2.322;2022-11-12T18:17:48;15.20;77.70
65408;DHT22;52017;51.230;-2.322;2022-11-12T18:21:29;15.20;77.60
65408;DHT22;52017;51.230;-2.322;2022-11-12T18:25:11;15.10;77.80
65408;DHT22;52017;51.230;-2.322;2022-11-12T18:28:55;15.00;77.90
65408;DHT22;52017;51.230;-2.322;2022-11-12T18:32:38;15.00;78.10
65408;DHT22;52017;51.230;-2.322;2022-11-12T18:36:24;15.00;78.20
65408;DHT22;52017;51.230;-2.322;2022-11-12T18:40:06;15.00;78.60
65408;DHT22;52017;51.230;-2.322;2022-11-12T18:43:48;15.00;78.70
65408;DHT22;52017;51.230;-2.322;2022-11-12T18:47:30;15.00;79.20
65408;DHT22;52017;51.230;-2.322;2022-11-12T18:51:14;15.00;79.10
65408;DHT22;52017;51.230;-2.322;2022-11-12T18:54:57;15.00;79.20
65408;DHT22;52017;51.230;-2.322;2022-11-12T18:58:39;14.90;79.40
65408;DHT22;52017;51.230;-2.322;2022-11-12T19:02:21;15.00;79.50
65408;DHT22;52017;51.230;-2.322;2022-11-12T19:06:04;14.90;79.50
65408;DHT22;52017;51.230;-2.322;2022-11-12T19:09:47;14.90;79.90
65408;DHT22;52017;51.230;-2.322;2022-11-12T19:13:30;14.90;79.90
65408;DHT22;52017;51.230;-2.322;2022-11-12T19:17:12;14.90;79.90
65408;DHT22;52017;51.230;-2.322;2022-11-12T19:21:08;14.80;80.30
65408;DHT22;52017;51.230;-2.322;2022-11-12T19:24:50;14.80;81.30
65408;DHT22;52017;51.230;-2.322;2022-11-12T19:28:33;14.80;80.50
65408;DHT22;52017;51.230;-2.322;2022-11-12T19:32:16;14.80;80.60
65408;DHT22;52017;51.230;-2.322;2022-11-12T19:35:58;14.80;80.60
65408;DHT22;52017;51.230;-2.322;2022-11-12T19:39:47;14.80;80.70
65408;DHT22;52017;51.230;-2.322;2022-11-12T19:43:29;14.80;80.80
65408;DHT22;52017;51.230;-2.322;2022-11-12T19:47:10;14.70;80.90
65408;DHT22;52017;51.230;-2.322;2022-11-12T19:50:53;14.70;81.00
65408;DHT22;52017;51.230;-2.322;2022-11-12T19:54:35;14.70;81.10
65408;DHT22;52017;51.230;-2.322;2022-11-12T19:58:18;14.60;81.30
65408;DHT22;52017;51.230;-2.322;2022-11-12T20:01:59;14.60;81.30
65408;DHT22;52017;51.230;-2.322;2022-11-12T20:05:42;14.60;81.40
65408;DHT22;52017;51.230;-2.322;2022-11-12T20:09:26;14.60;81.50
65408;DHT22;52017;51.230;-2.322;2022-11-12T20:13:08;14.50;81.60
65408;DHT22;52017;51.230;-2.322;2022-11-12T20:16:50;14.50;81.70
65408;DHT22;52017;51.230;-2.322;2022-11-12T20:20:32;14.50;81.80
65408;DHT22;52017;51.230;-2.322;2022-11-12T20:32:08;14.40;82.70
65408;DHT22;52017;51.230;-2.322;2022-11-12T20:35:50;14.40;82.50
65408;DHT22;52017;51.230;-2.322;2022-11-12T20:39:32;14.40;82.80
65408;DHT22;52017;51.230;-2.322;2022-11-12T20:43:14;14.50;83.10
65408;DHT22;52017;51.230;-2.322;2022-11-12T20:46:56;14.50;83.00
65408;DHT22;52017;51.230;-2.322;2022-11-12T20:50:40;14.50;83.30
65408;DHT22;52017;51.230;-2.322;2022-11-12T20:54:42;14.60;83.60
65408;DHT22;52017;51.230;-2.322;2022-11-12T20:58:24;14.70;83.60
65408;DHT22;52017;51.230;-2.322;2022-11-12T21:02:08;14.70;83.40
65408;DHT22;52017;51.230;-2.322;2022-11-12T21:05:59;14.70;83.80
65408;DHT22;52017;51.230;-2.322;2022-11-12T21:09:43;14.70;84.30
65408;DHT22;52017;51.230;-2.322;2022-11-12T21:13:28;14.70;83.70
65408;DHT22;52017;51.230;-2.322;2022-11-12T21:17:39;14.70;83.70
65408;DHT22;52017;51.230;-2.322;2022-11-12T21:21:22;14.60;84.60
65408;DHT22;52017;51.230;-2.322;2022-11-12T21:25:19;14.60;83.80
65408;DHT22;52017;51.230;-2.322;2022-11-12T21:29:04;14.60;84.70
65408;DHT22;52017;51.230;-2.322;2022-11-12T21:36:44;14.50;83.90
65408;DHT22;52017;51.230;-2.322;2022-11-12T21:40:26;14.50;83.80
65408;DHT22;52017;51.230;-2.322;2022-11-12T21:44:16;14.50;83.90
65408;DHT22;52017;51.230;-2.322;2022-11-12T21:59:50;14.40;83.80
65408;DHT22;52017;51.230;-2.322;2022-11-12T22:03:32;14.30;83.80
65408;DHT22;52017;51.230;-2.322;2022-11-12T22:11:14;14.30;84.70
65408;DHT22;52017;51.230;-2.322;2022-11-12T22:14:58;14.30;84.50
65408;DHT22;52017;51.230;-2.322;2022-11-12T22:18:46;14.20;84.20
65408;DHT22;52017;51.230;-2.322;2022-11-12T22:31:02;14.10;84.60
65408;DHT22;52017;51.230;-2.322;2022-11-12T22:34:45;14.00;84.40
65408;DHT22;52017;51.230;-2.322;2022-11-12T22:38:38;14.00;84.20
65408;DHT22;52017;51.230;-2.322;2022-11-12T22:42:21;14.00;84.70
65408;DHT22;52017;51.230;-2.322;2022-11-12T22:46:09;13.90;84.20
65408;DHT22;52017;51.230;-2.322;2022-11-12T22:49:52;13.80;84.50
65408;DHT22;52017;51.230;-2.322;2022-11-12T22:53:34;13.80;84.30
65408;DHT22;52017;51.230;-2.322;2022-11-12T22:57:16;13.70;84.30
65408;DHT22;52017;51.230;-2.322;2022-11-12T23:00:58;13.60;84.30
65408;DHT22;52017;51.230;-2.322;2022-11-12T23:04:40;13.60;84.30
65408;DHT22;52017;51.230;-2.322;2022-11-12T23:12:17;13.50;84.40
65408;DHT22;52017;51.230;-2.322;2022-11-12T23:15:59;13.50;84.50
65408;DHT22;52017;51.230;-2.322;2022-11-12T23:19:41;13.50;84.40
65408;DHT22;52017;51.230;-2.322;2022-11-12T23:23:23;13.40;84.40
65408;DHT22;52017;51.230;-2.322;2022-11-12T23:27:05;13.40;84.40
65408;DHT22;52017;51.230;-2.322;2022-11-12T23:30:48;13.30;84.40
65408;DHT22;52017;51.230;-2.322;2022-11-12T23:34:31;13.30;84.40
65408;DHT22;52017;51.230;-2.322;2022-11-12T23:38:18;13.20;84.50
65408;DHT22;52017;51.230;-2.322;2022-11-12T23:42:00;13.20;84.70
65408;DHT22;52017;51.230;-2.322;2022-11-12T23:45:42;13.20;84.50
65408;DHT22;52017;51.230;-2.322;2022-11-12T23:49:24;13.20;84.50
65408;DHT22;52017;51.230;-2.322;2022-11-12T23:53:06;13.10;84.50
65408;DHT22;52017;51.230;-2.322;2022-11-12T23:56:48;13.10;84.50
